Time;durP1;ratioP1;P1;durP2;ratioP2;P2;SDS_P1;SDS_P2;PMS_P1;PMS_P2;Temp;Humidity;BMP_temperature;BMP_pressure;BME280_temperature;BME280_humidity;BME280_pressure;Samples;Min_cycle;Max_cycle;Signal;HPM_P1;HPM_P2
2022/07/25 00:01:54;;;;;;;;;;;17.40;99.90;;;;;;5068248;28;19996;-74
2022/07/25 00:04:20;;;;;;;;;;;17.30;99.90;;;;;;5067956;28;19948;-73
2022/07/25 00:06:46;;;;;;;;;;;17.20;99.90;;;;;;5067159;28;20341;-74
2022/07/25 00:14:01;;;;;;;;;;;17.20;99.90;;;;;;5088657;28;19912;-73
2022/07/25 00:16:26;;;;;;;;;;;17.10;99.90;;;;;;5070810;28;20003;-73
2022/07/25 00:19:28;;;;;;;;;;;17.10;99.90;;;;;;5093212;27;20365;-74
2022/07/25 00:21:53;;;;;;;;;;;17.20;99.90;;;;;;5088351;28;20012;-80
2022/07/25 00:24:19;;;;;;;;;;;17.10;99.90;;;;;;5088479;28;19915;-74
2022/07/25 00:26:44;;;;;;;;;;;17.10;99.90;;;;;;5094159;28;19955;-74
2022/07/25 00:29:10;;;;;;;;;;;17.00;99.90;;;;;;5088476;28;19908;-75
2022/07/25 00:31:35;;;;;;;;;;;16.90;99.90;;;;;;5087245;28;19916;-74
2022/07/25 00:34:01;;;;;;;;;;;16.90;99.90;;;;;;5088035;28;20146;-74
2022/07/25 00:36:27;;;;;;;;;;;16.80;99.90;;;;;;5088453;28;19908;-74
2022/07/25 00:38:52;;;;;;;;;;;16.80;99.90;;;;;;5087272;28;19919;-75
2022/07/25 00:41:17;;;;;;;;;;;16.80;99.90;;;;;;5087860;28;19951;-74
2022/07/25 00:43:44;;;;;;;;;;;16.80;99.90;;;;;;5087917;28;20587;-74
2022/07/25 00:46:13;;;;;;;;;;;16.80;99.90;;;;;;5088559;28;20407;-74
2022/07/25 00:48:39;;;;;;;;;;;16.80;99.90;;;;;;5081822;28;19909;-74
2022/07/25 00:51:18;;;;;;;;;;;16.70;99.90;;;;;;5080215;28;19913;-74
2022/07/25 00:53:43;;;;;;;;;;;16.70;99.90;;;;;;5068064;28;20386;-74
2022/07/25 00:56:09;;;;;;;;;;;16.70;99.90;;;;;;5067856;28;20301;-74
2022/07/25 00:58:35;;;;;;;;;;;16.60;99.90;;;;;;5068173;28;19952;-76
2022/07/25 01:01:01;;;;;;;;;;;16.60;99.90;;;;;;5068288;28;19923;-80
2022/07/25 01:03:26;;;;;;;;;;;16.50;99.90;;;;;;5067483;28;19908;-74
2022/07/25 01:05:52;;;;;;;;;;;16.50;99.90;;;;;;5068369;28;20070;-74
2022/07/25 01:08:18;;;;;;;;;;;16.50;99.90;;;;;;5068538;28;19909;-74
2022/07/25 01:13:10;;;;;;;;;;;16.50;99.90;;;;;;5080038;28;20288;-74
2022/07/25 01:15:36;;;;;;;;;;;16.40;99.90;;;;;;5068909;28;19992;-74
2022/07/25 01:19:28;;;;;;;;;;;16.40;99.90;;;;;;5078077;28;20366;-74
2022/07/25 01:23:39;;;;;;;;;;;16.40;99.90;;;;;;5102962;27;20266;-74
2022/07/25 01:26:04;;;;;;;;;;;16.40;99.90;;;;;;5107945;28;20007;-74
2022/07/25 01:28:38;;;;;;;;;;;16.40;99.90;;;;;;5076248;28;19913;-73
2022/07/25 01:31:04;;;;;;;;;;;16.60;99.90;;;;;;5068656;28;20003;-74
2022/07/25 01:33:37;;;;;;;;;;;16.60;99.90;;;;;;5081634;28;19951;-74
2022/07/25 01:38:25;;;;;;;;;;;16.50;99.90;;;;;;5075395;28;19926;-74
2022/07/25 01:41:46;;;;;;;;;;;16.40;99.90;;;;;;5068957;28;19927;-74
2022/07/25 01:44:12;;;;;;;;;;;16.30;99.90;;;;;;5068261;28;19912;-74
2022/07/25 01:47:43;;;;;;;;;;;16.20;99.90;;;;;;5074744;28;20429;-74
2022/07/25 01:50:08;;;;;;;;;;;16.10;99.90;;;;;;5068777;28;20007;-74
2022/07/25 01:54:33;;;;;;;;;;;16.20;99.90;;;;;;5076772;28;19954;-73
2022/07/25 01:56:59;;;;;;;;;;;16.20;99.90;;;;;;5068159;28;20019;-74
2022/07/25 01:59:24;;;;;;;;;;;16.00;99.90;;;;;;5068798;28;19920;-73
2022/07/25 02:01:50;;;;;;;;;;;16.00;99.90;;;;;;5068111;28;19916;-74
2022/07/25 02:04:15;;;;;;;;;;;16.00;99.90;;;;;;5068398;28;19916;-73
2022/07/25 02:06:41;;;;;;;;;;;16.00;99.90;;;;;;5068466;28;19995;-73
2022/07/25 02:09:06;;;;;;;;;;;15.90;99.90;;;;;;5068808;28;19909;-75
2022/07/25 02:13:07;;;;;;;;;;;15.90;99.90;;;;;;5081001;28;19927;-73
2022/07/25 02:15:34;;;;;;;;;;;15.80;99.90;;;;;;5078627;28;19996;-74
2022/07/25 02:17:59;;;;;;;;;;;15.80;99.90;;;;;;5087684;28;20276;-74
2022/07/25 02:20:25;;;;;;;;;;;15.80;99.90;;;;;;5088160;28;20007;-74
2022/07/25 02:22:50;;;;;;;;;;;15.80;99.90;;;;;;5068238;28;19909;-77
2022/07/25 02:25:16;;;;;;;;;;;15.70;99.90;;;;;;5072652;28;19916;-74
2022/07/25 02:27:41;;;;;;;;;;;15.70;99.90;;;;;;5068363;28;19919;-74
2022/07/25 02:30:07;;;;;;;;;;;15.60;99.90;;;;;;5068156;28;19948;-74
2022/07/25 02:32:33;;;;;;;;;;;15.60;99.90;;;;;;5067946;28;20353;-77
2022/07/25 02:35:26;;;;;;;;;;;15.50;99.90;;;;;;5079239;28;20308;-74
2022/07/25 02:37:52;;;;;;;;;;;15.50;99.90;;;;;;5068598;28;20023;-74
2022/07/25 02:40:17;;;;;;;;;;;15.50;99.90;;;;;;5067178;28;20327;-74
2022/07/25 02:42:43;;;;;;;;;;;15.40;99.90;;;;;;5067788;28;19909;-80
2022/07/25 02:45:09;;;;;;;;;;;15.40;99.90;;;;;;5066713;28;20301;-73
2022/07/25 02:47:34;;;;;;;;;;;15.40;99.90;;;;;;5068496;28;19909;-74
2022/07/25 02:50:00;;;;;;;;;;;15.40;99.90;;;;;;5068209;28;20293;-73
2022/07/25 02:52:25;;;;;;;;;;;15.50;99.90;;;;;;5067820;28;19908;-79
2022/07/25 02:54:51;;;;;;;;;;;15.40;99.90;;;;;;5066411;28;20007;-74
2022/07/25 02:57:16;;;;;;;;;;;15.40;99.90;;;;;;5067956;28;19908;-74
2022/07/25 02:59:41;;;;;;;;;;;15.30;99.90;;;;;;5068258;28;20400;-75
2022/07/25 03:02:07;;;;;;;;;;;15.30;99.90;;;;;;5067617;28;19930;-74
2022/07/25 03:04:32;;;;;;;;;;;15.40;99.90;;;;;;5067027;28;19951;-74
2022/07/25 03:06:58;;;;;;;;;;;15.40;99.90;;;;;;5067887;28;20293;-74
2022/07/25 03:09:24;;;;;;;;;;;15.40;99.90;;;;;;5068069;28;19915;-74
2022/07/25 03:11:50;;;;;;;;;;;15.40;99.90;;;;;;5067255;28;19909;-79
2022/07/25 03:14:16;;;;;;;;;;;15.40;99.90;;;;;;5062880;28;19913;-75
2022/07/25 03:16:41;;;;;;;;;;;15.40;99.90;;;;;;5067603;28;20443;-79
2022/07/25 03:19:09;;;;;;;;;;;15.30;99.90;;;;;;5067477;28;19956;-74
2022/07/25 03:21:35;;;;;;;;;;;15.30;99.90;;;;;;5067252;28;19970;-74
2022/07/25 03:24:01;;;;;;;;;;;15.20;99.90;;;;;;5065789;28;19908;-74
2022/07/25 03:26:26;;;;;;;;;;;15.30;99.90;;;;;;5067348;28;19909;-74
2022/07/25 03:28:52;;;;;;;;;;;15.20;99.90;;;;;;5067226;28;19940;-77
2022/07/25 03:31:17;;;;;;;;;;;15.10;99.90;;;;;;5067052;28;19913;-74
2022/07/25 03:33:43;;;;;;;;;;;15.10;99.90;;;;;;5073036;28;20121;-74
2022/07/25 03:36:10;;;;;;;;;;;15.10;99.90;;;;;;5087738;28;20277;-74
2022/07/25 03:38:36;;;;;;;;;;;15.00;99.90;;;;;;5087403;28;20382;-74
2022/07/25 03:41:01;;;;;;;;;;;15.00;99.90;;;;;;5087566;28;19908;-74
2022/07/25 03:43:27;;;;;;;;;;;15.10;99.90;;;;;;5086506;28;20380;-74
2022/07/25 03:45:52;;;;;;;;;;;15.20;99.90;;;;;;5077934;28;20370;-75
2022/07/25 03:48:18;;;;;;;;;;;15.20;99.90;;;;;;5073841;28;20472;-74
2022/07/25 03:50:43;;;;;;;;;;;15.20;99.90;;;;;;5073981;28;19909;-74
2022/07/25 03:53:09;;;;;;;;;;;15.20;99.90;;;;;;5072668;28;20395;-74
2022/07/25 03:55:34;;;;;;;;;;;15.10;99.90;;;;;;5077984;28;19909;-79
2022/07/25 03:58:00;;;;;;;;;;;15.10;99.90;;;;;;5073333;28;19915;-74
2022/07/25 04:00:25;;;;;;;;;;;15.20;99.90;;;;;;5073703;28;20369;-74
2022/07/25 04:02:51;;;;;;;;;;;15.20;99.90;;;;;;5072847;28;19913;-75
2022/07/25 04:05:17;;;;;;;;;;;15.10;99.90;;;;;;5072621;28;19915;-75
2022/07/25 04:07:42;;;;;;;;;;;15.10;99.90;;;;;;5073740;28;20003;-74
2022/07/25 04:10:24;;;;;;;;;;;15.20;99.90;;;;;;5079855;28;19927;-73
2022/07/25 04:12:50;;;;;;;;;;;15.20;99.90;;;;;;5068215;28;20011;-74
2022/07/25 04:15:15;;;;;;;;;;;15.20;99.90;;;;;;5068114;28;20039;-74
2022/07/25 04:17:41;;;;;;;;;;;15.30;99.90;;;;;;5068728;28;20354;-73
2022/07/25 04:20:07;;;;;;;;;;;15.30;99.90;;;;;;5067210;28;20015;-74
2022/07/25 04:22:32;;;;;;;;;;;15.20;99.90;;;;;;5062377;28;19921;-74
2022/07/25 04:24:58;;;;;;;;;;;15.30;99.90;;;;;;5067573;28;19909;-74
2022/07/25 04:27:23;;;;;;;;;;;15.50;99.90;;;;;;5067994;28;20243;-76
2022/07/25 04:31:47;;;;;;;;;;;15.60;99.90;;;;;;5109278;27;20045;-74
2022/07/25 04:39:11;;;;;;;;;;;15.90;99.90;;;;;;5089255;28;19926;-74
2022/07/25 04:41:45;;;;;;;;;;;15.90;99.90;;;;;;5088976;28;19927;-74
2022/07/25 04:44:11;;;;;;;;;;;16.10;99.90;;;;;;5084023;28;19999;-74
2022/07/25 04:46:36;;;;;;;;;;;16.10;99.90;;;;;;5086803;28;19935;-74
2022/07/25 04:49:02;;;;;;;;;;;16.30;99.90;;;;;;5090392;28;19931;-80
2022/07/25 04:51:28;;;;;;;;;;;16.40;99.90;;;;;;5071820;28;19916;-74
2022/07/25 04:53:53;;;;;;;;;;;16.50;99.90;;;;;;5084532;28;19909;-76
2022/07/25 04:56:19;;;;;;;;;;;16.60;99.90;;;;;;5090624;28;19995;-76
2022/07/25 04:58:44;;;;;;;;;;;16.60;99.90;;;;;;5080738;28;20380;-76
2022/07/25 05:01:10;;;;;;;;;;;16.80;99.90;;;;;;5078032;28;19913;-74
2022/07/25 05:03:35;;;;;;;;;;;16.80;99.90;;;;;;5087975;28;19908;-74
2022/07/25 05:06:01;;;;;;;;;;;17.00;99.90;;;;;;5080158;28;19909;-75
2022/07/25 05:09:29;;;;;;;;;;;17.10;99.90;;;;;;5108381;27;19919;-75
2022/07/25 05:11:54;;;;;;;;;;;17.10;99.90;;;;;;5109406;28;19990;-79
2022/07/25 05:14:20;;;;;;;;;;;17.10;99.90;;;;;;5092179;28;20371;-74
2022/07/25 05:16:45;;;;;;;;;;;17.20;99.90;;;;;;5088958;28;19954;-74
2022/07/25 05:19:11;;;;;;;;;;;17.30;99.90;;;;;;5103972;28;19912;-79
2022/07/25 05:24:21;;;;;;;;;;;17.60;99.90;;;;;;5092368;28;19920;-79
2022/07/25 05:26:47;;;;;;;;;;;17.70;99.90;;;;;;5073068;28;19912;-76
2022/07/25 05:30:58;;;;;;;;;;;17.90;99.90;;;;;;5067523;28;19913;-76
2022/07/25 05:33:25;;;;;;;;;;;18.00;99.90;;;;;;5065395;28;20056;-76
2022/07/25 05:35:51;;;;;;;;;;;18.10;99.90;;;;;;5067048;28;19913;-74
2022/07/25 05:38:16;;;;;;;;;;;18.20;99.90;;;;;;5066365;28;19913;-75
2022/07/25 05:40:42;;;;;;;;;;;18.20;99.90;;;;;;5070892;28;19909;-74
2022/07/25 05:43:07;;;;;;;;;;;18.50;99.90;;;;;;5067197;28;19967;-74
2022/07/25 05:45:33;;;;;;;;;;;18.80;99.90;;;;;;5068369;28;19909;-79
2022/07/25 05:47:59;;;;;;;;;;;19.20;99.90;;;;;;5068825;28;19909;-74
2022/07/25 05:50:24;;;;;;;;;;;19.20;99.90;;;;;;5063212;28;19953;-75
2022/07/25 05:52:50;;;;;;;;;;;20.40;99.90;;;;;;5062109;28;19913;-76
2022/07/25 05:55:16;;;;;;;;;;;21.70;99.90;;;;;;5063386;28;19978;-80
2022/07/25 05:57:41;;;;;;;;;;;21.70;99.90;;;;;;5067239;28;19913;-77
2022/07/25 06:00:08;;;;;;;;;;;20.80;99.90;;;;;;5067894;28;19908;-75
2022/07/25 06:02:33;;;;;;;;;;;20.30;99.90;;;;;;5067300;28;20285;-77
2022/07/25 06:04:59;;;;;;;;;;;20.10;99.90;;;;;;5051884;28;19909;-74
2022/07/25 06:09:30;;;;;;;;;;;20.20;99.90;;;;;;5087125;28;19912;-74
2022/07/25 06:11:56;;;;;;;;;;;20.30;99.90;;;;;;5087480;28;20417;-77
2022/07/25 06:14:22;;;;;;;;;;;20.60;99.90;;;;;;5075821;28;19916;-74
2022/07/25 06:16:47;;;;;;;;;;;20.90;99.90;;;;;;5068397;28;20488;-74
2022/07/25 06:19:13;;;;;;;;;;;20.70;99.90;;;;;;5069659;28;19916;-74
2022/07/25 06:21:38;;;;;;;;;;;20.70;99.90;;;;;;5058910;28;19913;-76
2022/07/25 06:24:04;;;;;;;;;;;20.90;99.90;;;;;;5061146;28;19947;-75
2022/07/25 06:26:29;;;;;;;;;;;21.40;99.90;;;;;;5055841;28;19960;-75
2022/07/25 06:28:55;;;;;;;;;;;22.20;99.90;;;;;;5069384;28;19913;-75
2022/07/25 06:31:20;;;;;;;;;;;23.00;99.90;;;;;;5072902;28;20274;-79
2022/07/25 06:33:46;;;;;;;;;;;23.30;99.90;;;;;;5070097;28;20287;-77
2022/07/25 06:36:11;;;;;;;;;;;22.70;99.90;;;;;;5079389;28;19995;-74
2022/07/25 06:38:37;;;;;;;;;;;22.50;99.90;;;;;;5074388;28;19999;-74
2022/07/25 06:43:34;;;;;;;;;;;22.20;99.90;;;;;;5075117;28;19917;-75
2022/07/25 06:46:48;;;;;;;;;;;22.50;99.90;;;;;;5074807;28;20459;-75
2022/07/25 06:49:13;;;;;;;;;;;22.80;99.90;;;;;;5065524;28;19912;-76
2022/07/25 06:53:27;;;;;;;;;;;23.10;99.90;;;;;;5087274;28;20274;-74
2022/07/25 06:55:52;;;;;;;;;;;23.30;99.90;;;;;;5084876;28;20094;-74
2022/07/25 06:59:22;;;;;;;;;;;23.90;99.90;;;;;;5070046;28;19913;-74
2022/07/25 07:02:57;;;;;;;;;;;25.70;99.90;;;;;;5074709;28;19913;-75
2022/07/25 07:05:53;;;;;;;;;;;26.40;99.90;;;;;;5070212;28;19913;-75
2022/07/25 07:09:29;;;;;;;;;;;27.70;97.70;;;;;;5060401;28;19913;-77
2022/07/25 07:11:55;;;;;;;;;;;28.30;96.10;;;;;;5047679;28;19955;-75
2022/07/25 07:14:20;;;;;;;;;;;28.60;94.70;;;;;;5047186;28;19963;-75
2022/07/25 07:16:46;;;;;;;;;;;28.50;94.90;;;;;;5035191;28;19913;-75
2022/07/25 07:19:13;;;;;;;;;;;28.90;96.20;;;;;;5066731;28;19908;-78
2022/07/25 07:23:25;;;;;;;;;;;28.60;95.40;;;;;;5080174;28;20419;-75
2022/07/25 07:25:50;;;;;;;;;;;29.30;94.30;;;;;;5076115;28;19999;-75
2022/07/25 07:28:16;;;;;;;;;;;29.40;94.00;;;;;;5065486;28;19934;-75
2022/07/25 07:30:42;;;;;;;;;;;29.80;92.30;;;;;;5074233;28;20362;-79
2022/07/25 07:33:07;;;;;;;;;;;30.00;91.80;;;;;;5066604;28;19931;-75
2022/07/25 07:35:33;;;;;;;;;;;29.90;91.90;;;;;;5070525;28;20140;-75
2022/07/25 07:39:29;;;;;;;;;;;30.30;91.20;;;;;;5074939;28;20335;-75
2022/07/25 07:41:55;;;;;;;;;;;31.10;87.40;;;;;;5087483;28;20006;-75
2022/07/25 07:44:38;;;;;;;;;;;31.40;84.60;;;;;;5074261;28;19927;-76
2022/07/25 07:47:03;;;;;;;;;;;31.20;86.00;;;;;;5068735;28;20003;-75
2022/07/25 07:49:29;;;;;;;;;;;30.90;87.60;;;;;;5068521;28;19917;-75
2022/07/25 07:51:54;;;;;;;;;;;30.80;86.30;;;;;;5073708;28;19943;-77
2022/07/25 07:57:04;;;;;;;;;;;31.80;84.90;;;;;;5067622;28;20384;-75
2022/07/25 07:59:29;;;;;;;;;;;31.70;82.70;;;;;;5068211;28;19917;-75
2022/07/25 08:01:55;;;;;;;;;;;32.50;84.50;;;;;;5079732;28;19916;-76
2022/07/25 08:04:21;;;;;;;;;;;32.80;81.40;;;;;;5083614;28;19971;-76
2022/07/25 08:06:46;;;;;;;;;;;32.90;77.00;;;;;;5075425;28;19916;-78
2022/07/25 08:09:12;;;;;;;;;;;32.70;76.90;;;;;;5068106;28;19962;-75
2022/07/25 08:12:58;;;;;;;;;;;32.70;77.10;;;;;;5072603;28;19924;-75
2022/07/25 08:15:24;;;;;;;;;;;32.90;75.30;;;;;;5070260;28;19946;-75
2022/07/25 08:17:50;;;;;;;;;;;33.50;76.00;;;;;;5085615;28;19916;-76
2022/07/25 08:20:16;;;;;;;;;;;33.40;72.20;;;;;;5086683;28;20411;-75
2022/07/25 08:23:58;;;;;;;;;;;33.60;74.00;;;;;;5076030;28;19912;-75
2022/07/25 08:26:26;;;;;;;;;;;33.50;73.70;;;;;;5071848;28;20259;-78
2022/07/25 08:28:52;;;;;;;;;;;33.60;73.60;;;;;;5056943;28;20956;-76
2022/07/25 08:31:18;;;;;;;;;;;33.60;71.00;;;;;;5072430;28;20250;-75
2022/07/25 08:33:43;;;;;;;;;;;33.90;74.20;;;;;;5054105;28;20342;-79
2022/07/25 08:36:34;;;;;;;;;;;33.70;74.80;;;;;;5087448;28;19970;-76
2022/07/25 08:39:23;;;;;;;;;;;34.10;69.30;;;;;;5063521;28;19950;-75
2022/07/25 08:41:48;;;;;;;;;;;34.40;71.20;;;;;;5063298;28;19916;-76
2022/07/25 08:46:40;;;;;;;;;;;35.10;68.00;;;;;;5075180;28;19939;-75
2022/07/25 08:49:06;;;;;;;;;;;35.20;69.50;;;;;;5064978;28;19919;-75
2022/07/25 08:51:32;;;;;;;;;;;34.60;69.40;;;;;;5048334;28;19916;-76
2022/07/25 08:53:58;;;;;;;;;;;35.20;68.80;;;;;;5064593;28;19913;-79
2022/07/25 08:56:23;;;;;;;;;;;35.60;64.10;;;;;;5056071;28;20374;-75
2022/07/25 08:58:50;;;;;;;;;;;35.80;65.30;;;;;;5067824;28;20412;-75
2022/07/25 09:02:06;;;;;;;;;;;36.60;62.90;;;;;;5077792;28;19913;-75
2022/07/25 09:04:34;;;;;;;;;;;37.00;64.70;;;;;;5067547;28;19913;-75
2022/07/25 09:09:44;;;;;;;;;;;37.20;64.30;;;;;;5031632;28;19917;-79
2022/07/25 09:12:09;;;;;;;;;;;36.80;58.40;;;;;;5038615;28;19954;-75
2022/07/25 09:15:40;;;;;;;;;;;37.00;59.60;;;;;;5081531;28;20333;-75
2022/07/25 09:20:53;;;;;;;;;;;37.60;62.70;;;;;;5088836;28;19916;-79
2022/07/25 09:23:25;;;;;;;;;;;37.80;59.30;;;;;;5084412;28;20258;-75
2022/07/25 09:28:24;;;;;;;;;;;37.60;60.00;;;;;;5076942;28;19921;-75
2022/07/25 09:30:53;;;;;;;;;;;37.40;59.50;;;;;;5069948;28;20424;-75
2022/07/25 09:33:19;;;;;;;;;;;37.00;64.00;;;;;;5072998;28;19916;-76
2022/07/25 09:35:45;;;;;;;;;;;36.40;63.90;;;;;;5052046;28;20004;-76
2022/07/25 09:38:11;;;;;;;;;;;37.30;62.80;;;;;;5061261;28;19963;-74
2022/07/25 09:40:37;;;;;;;;;;;37.20;57.90;;;;;;5047502;28;19909;-77
2022/07/25 09:43:03;;;;;;;;;;;36.90;58.40;;;;;;5048077;28;19959;-76
2022/07/25 09:47:16;;;;;;;;;;;36.70;60.40;;;;;;5069603;28;20320;-75
2022/07/25 09:49:43;;;;;;;;;;;36.90;63.50;;;;;;5068476;28;20014;-75
2022/07/25 09:52:10;;;;;;;;;;;37.00;60.90;;;;;;5067924;28;19944;-75
2022/07/25 09:54:37;;;;;;;;;;;37.20;57.80;;;;;;5067369;28;19908;-75
2022/07/25 09:59:31;;;;;;;;;;;37.80;59.50;;;;;;5082890;28;19931;-75
2022/07/25 10:02:05;;;;;;;;;;;37.40;60.70;;;;;;5074508;28;19916;-77
2022/07/25 10:04:54;;;;;;;;;;;36.80;58.00;;;;;;5046973;28;19945;-75
2022/07/25 10:07:20;;;;;;;;;;;37.00;58.90;;;;;;5070231;28;19992;-80
2022/07/25 10:09:47;;;;;;;;;;;37.80;57.20;;;;;;5053306;28;19909;-78
2022/07/25 10:12:13;;;;;;;;;;;37.60;56.20;;;;;;5054658;28;19913;-76
2022/07/25 10:14:39;;;;;;;;;;;37.40;53.00;;;;;;5046531;28;19913;-75
2022/07/25 10:17:05;;;;;;;;;;;37.70;53.20;;;;;;5046828;28;20385;-75
2022/07/25 10:19:41;;;;;;;;;;;37.10;56.20;;;;;;5061176;28;19955;-76
2022/07/25 10:22:06;;;;;;;;;;;38.00;58.60;;;;;;5059906;28;19916;-77
2022/07/25 10:24:33;;;;;;;;;;;38.30;53.50;;;;;;5065180;28;20277;-79
2022/07/25 10:27:05;;;;;;;;;;;38.30;49.20;;;;;;5055070;28;20417;-76
2022/07/25 10:29:35;;;;;;;;;;;38.30;53.90;;;;;;5049997;28;19909;-76
2022/07/25 10:32:05;;;;;;;;;;;37.80;52.80;;;;;;5050871;28;19920;-78
2022/07/25 10:39:36;;;;;;;;;;;38.10;50.00;;;;;;5118716;27;19912;-78
2022/07/25 10:49:34;;;;;;;;;;;37.80;48.10;;;;;;5081716;28;19954;-75
2022/07/25 10:52:02;;;;;;;;;;;37.80;47.00;;;;;;5087683;28;19966;-75
2022/07/25 11:15:47;;;;;;;;;;;38.70;46.80;;;;;;5088144;27;19916;-75
2022/07/25 11:22:54;;;;;;;;;;;38.70;47.20;;;;;;5074467;28;19916;-75
2022/07/25 11:26:44;;;;;;;;;;;38.90;46.10;;;;;;5088394;28;19916;-75
2022/07/25 11:29:17;;;;;;;;;;;39.00;48.50;;;;;;5081184;28;20305;-76
2022/07/25 11:33:02;;;;;;;;;;;38.60;46.30;;;;;;5075415;28;20270;-75
2022/07/25 11:35:29;;;;;;;;;;;38.20;45.80;;;;;;5067093;28;19913;-75
2022/07/25 11:37:55;;;;;;;;;;;38.40;49.20;;;;;;5068106;28;19909;-75
2022/07/25 11:40:21;;;;;;;;;;;38.60;50.50;;;;;;5066031;28;20384;-75
2022/07/25 11:42:51;;;;;;;;;;;39.00;47.80;;;;;;5065907;28;19908;-76
2022/07/25 11:45:42;;;;;;;;;;;39.20;47.40;;;;;;5081942;28;20327;-75
2022/07/25 11:48:12;;;;;;;;;;;39.20;47.30;;;;;;5072922;28;19917;-79
2022/07/25 11:50:38;;;;;;;;;;;39.40;47.80;;;;;;5068855;28;19913;-75
2022/07/25 11:53:05;;;;;;;;;;;39.50;45.20;;;;;;5075868;28;20299;-77
2022/07/25 11:55:32;;;;;;;;;;;39.70;45.00;;;;;;5076417;28;19915;-75
2022/07/25 11:58:00;;;;;;;;;;;39.90;45.20;;;;;;5068620;28;19975;-75
2022/07/25 12:00:26;;;;;;;;;;;38.30;44.30;;;;;;5067042;28;20512;-75
2022/07/25 12:02:52;;;;;;;;;;;37.20;49.40;;;;;;5068272;28;19962;-74
2022/07/25 12:05:19;;;;;;;;;;;36.50;49.30;;;;;;5076768;28;19920;-74
2022/07/25 12:07:44;;;;;;;;;;;35.80;49.30;;;;;;5079736;28;19923;-77
2022/07/25 12:10:15;;;;;;;;;;;35.70;47.60;;;;;;5080540;28;19908;-74
2022/07/25 12:12:47;;;;;;;;;;;36.10;52.40;;;;;;5074578;28;19935;-77
2022/07/25 12:15:13;;;;;;;;;;;36.20;48.40;;;;;;5071129;28;19916;-78
2022/07/25 12:17:39;;;;;;;;;;;35.30;49.70;;;;;;5088246;28;19915;-73
2022/07/25 12:20:11;;;;;;;;;;;34.20;51.00;;;;;;5081350;28;20362;-75
2022/07/25 12:22:37;;;;;;;;;;;34.70;51.40;;;;;;5087351;28;19916;-76
2022/07/25 12:25:02;;;;;;;;;;;36.40;49.60;;;;;;5082159;28;19916;-74
2022/07/25 12:27:28;;;;;;;;;;;37.10;51.40;;;;;;5069808;28;19935;-74
2022/07/25 12:29:53;;;;;;;;;;;37.30;50.00;;;;;;5078818;28;19952;-75
2022/07/25 12:32:19;;;;;;;;;;;37.00;48.90;;;;;;5067674;28;19955;-79
2022/07/25 12:34:45;;;;;;;;;;;35.90;49.40;;;;;;5076199;28;19931;-75
2022/07/25 12:37:10;;;;;;;;;;;35.10;51.80;;;;;;5086056;28;19912;-75
2022/07/25 12:39:36;;;;;;;;;;;34.70;49.40;;;;;;5068073;28;20332;-75
2022/07/25 12:42:01;;;;;;;;;;;36.60;49.20;;;;;;5067493;28;19908;-77
2022/07/25 12:44:27;;;;;;;;;;;38.80;47.10;;;;;;5073556;28;19916;-74
2022/07/25 12:46:52;;;;;;;;;;;37.20;49.70;;;;;;5067817;28;19912;-75
2022/07/25 12:49:18;;;;;;;;;;;35.80;49.30;;;;;;5066383;28;19976;-75
2022/07/25 12:51:43;;;;;;;;;;;34.50;53.20;;;;;;5067104;28;19955;-78
2022/07/25 12:54:09;;;;;;;;;;;34.10;54.90;;;;;;5075288;28;19947;-74
2022/07/25 12:56:34;;;;;;;;;;;33.80;53.60;;;;;;5058318;28;20065;-75
2022/07/25 12:59:00;;;;;;;;;;;33.70;54.00;;;;;;5054138;28;19908;-75
2022/07/25 13:01:26;;;;;;;;;;;33.70;52.90;;;;;;5060122;28;19908;-80
2022/07/25 13:03:51;;;;;;;;;;;34.10;51.40;;;;;;5060597;28;19920;-75
2022/07/25 13:06:19;;;;;;;;;;;34.30;51.00;;;;;;5054204;28;19955;-75
2022/07/25 13:08:45;;;;;;;;;;;36.70;48.70;;;;;;5059466;28;19913;-75
2022/07/25 13:11:11;;;;;;;;;;;37.10;51.60;;;;;;5059425;28;19951;-75
2022/07/25 13:13:37;;;;;;;;;;;39.20;46.00;;;;;;5066093;28;19959;-75
2022/07/25 13:16:02;;;;;;;;;;;39.50;45.60;;;;;;5066500;28;20031;-76
2022/07/25 13:18:29;;;;;;;;;;;39.50;44.30;;;;;;5060529;28;19962;-75
2022/07/25 13:20:54;;;;;;;;;;;37.10;46.10;;;;;;5062115;28;19908;-78
2022/07/25 13:23:20;;;;;;;;;;;36.30;48.80;;;;;;5053048;28;20003;-75
2022/07/25 13:25:45;;;;;;;;;;;37.10;51.00;;;;;;5052026;28;19939;-75
2022/07/25 13:28:11;;;;;;;;;;;36.50;50.50;;;;;;5051224;28;20011;-75
2022/07/25 13:30:37;;;;;;;;;;;34.80;52.60;;;;;;5052168;28;19912;-77
2022/07/25 13:33:02;;;;;;;;;;;34.20;53.10;;;;;;5053211;28;19909;-76
2022/07/25 13:35:28;;;;;;;;;;;35.10;51.20;;;;;;5053040;28;20004;-75
2022/07/25 13:39:28;;;;;;;;;;;35.30;52.50;;;;;;5099857;27;19913;-74
2022/07/25 13:41:53;;;;;;;;;;;34.40;54.40;;;;;;5087021;28;20323;-75
2022/07/25 13:44:19;;;;;;;;;;;34.30;55.60;;;;;;5087829;28;19931;-75
2022/07/25 13:46:48;;;;;;;;;;;34.20;55.80;;;;;;5087409;28;19915;-74
2022/07/25 13:49:14;;;;;;;;;;;34.40;55.30;;;;;;5087867;28;19908;-77
2022/07/25 13:51:40;;;;;;;;;;;35.60;53.90;;;;;;5086340;28;20389;-74
2022/07/25 13:54:05;;;;;;;;;;;35.10;53.60;;;;;;5087549;28;19916;-75
2022/07/25 13:56:31;;;;;;;;;;;34.20;55.60;;;;;;5096858;28;20350;-76
2022/07/25 13:58:57;;;;;;;;;;;33.70;57.60;;;;;;5086841;28;19912;-78
2022/07/25 14:01:25;;;;;;;;;;;33.30;56.70;;;;;;5093021;28;20004;-74
2022/07/25 14:03:50;;;;;;;;;;;32.80;57.60;;;;;;5087688;28;19915;-74
2022/07/25 14:06:16;;;;;;;;;;;32.30;58.20;;;;;;5088278;28;19913;-74
2022/07/25 14:08:42;;;;;;;;;;;32.00;61.00;;;;;;5087454;28;19908;-76
2022/07/25 14:11:07;;;;;;;;;;;31.50;59.00;;;;;;5085907;28;19908;-76
2022/07/25 14:13:33;;;;;;;;;;;31.30;61.00;;;;;;5086997;28;20282;-75
2022/07/25 14:15:59;;;;;;;;;;;29.80;74.80;;;;;;5087656;28;19908;-74
2022/07/25 14:18:24;;;;;;;;;;;29.40;81.70;;;;;;5087647;28;19946;-74
2022/07/25 14:20:50;;;;;;;;;;;30.70;81.80;;;;;;5084108;28;19991;-75
2022/07/25 14:23:16;;;;;;;;;;;34.30;76.60;;;;;;5088869;28;19912;-77
2022/07/25 14:25:41;;;;;;;;;;;36.60;69.50;;;;;;5093292;28;20053;-75
2022/07/25 14:28:07;;;;;;;;;;;37.60;60.60;;;;;;5090042;28;20017;-76
2022/07/25 14:30:32;;;;;;;;;;;35.60;59.00;;;;;;5086984;28;19944;-73
2022/07/25 14:32:58;;;;;;;;;;;33.20;62.10;;;;;;5087160;28;19909;-74
2022/07/25 14:35:24;;;;;;;;;;;31.60;64.30;;;;;;5086963;28;19930;-78
2022/07/25 14:37:49;;;;;;;;;;;31.10;65.60;;;;;;5087300;28;19927;-73
2022/07/25 14:40:15;;;;;;;;;;;31.20;62.30;;;;;;5087320;28;19957;-75
2022/07/25 14:42:41;;;;;;;;;;;31.90;65.20;;;;;;5086918;28;19999;-74
2022/07/25 14:45:07;;;;;;;;;;;35.30;56.90;;;;;;5086886;28;20004;-75
2022/07/25 14:49:27;;;;;;;;;;;37.50;51.10;;;;;;5075212;28;19913;-75
2022/07/25 14:51:53;;;;;;;;;;;35.80;55.20;;;;;;5069462;28;19913;-75
2022/07/25 14:54:19;;;;;;;;;;;35.10;55.10;;;;;;5067896;28;19955;-75
2022/07/25 14:56:44;;;;;;;;;;;33.40;56.10;;;;;;5068611;28;19909;-77
2022/07/25 14:59:10;;;;;;;;;;;32.90;59.90;;;;;;5069298;28;20003;-74
2022/07/25 15:01:36;;;;;;;;;;;34.10;59.90;;;;;;5074045;28;19909;-74
2022/07/25 15:04:01;;;;;;;;;;;36.60;54.20;;;;;;5068843;28;19909;-74
2022/07/25 15:06:27;;;;;;;;;;;36.60;52.70;;;;;;5072210;28;19912;-74
2022/07/25 15:08:54;;;;;;;;;;;36.60;52.50;;;;;;5069510;28;19913;-74
2022/07/25 15:11:20;;;;;;;;;;;35.50;53.40;;;;;;5070931;28;20031;-75
2022/07/25 15:13:46;;;;;;;;;;;34.80;54.30;;;;;;5087481;28;19999;-74
2022/07/25 15:16:12;;;;;;;;;;;34.40;57.50;;;;;;5070179;28;19909;-74
2022/07/25 15:18:37;;;;;;;;;;;33.40;59.80;;;;;;5068244;28;19986;-74
2022/07/25 15:21:03;;;;;;;;;;;32.80;57.90;;;;;;5069365;28;19912;-78
2022/07/25 15:23:28;;;;;;;;;;;32.80;59.40;;;;;;5074776;28;19912;-74
2022/07/25 15:25:54;;;;;;;;;;;32.80;59.00;;;;;;5078781;28;19908;-74
2022/07/25 15:28:20;;;;;;;;;;;33.30;59.60;;;;;;5076029;28;19923;-75
2022/07/25 15:30:47;;;;;;;;;;;33.00;56.80;;;;;;5086985;28;19953;-74
2022/07/25 15:33:16;;;;;;;;;;;32.90;58.50;;;;;;5085593;28;19934;-76
2022/07/25 15:35:45;;;;;;;;;;;32.70;59.10;;;;;;5081901;28;20301;-74
2022/07/25 15:38:12;;;;;;;;;;;32.20;59.20;;;;;;5074531;28;20427;-73
2022/07/25 15:40:37;;;;;;;;;;;32.60;59.00;;;;;;5069161;28;19913;-77
2022/07/25 15:43:03;;;;;;;;;;;33.20;59.50;;;;;;5074961;28;19915;-73
2022/07/25 15:45:29;;;;;;;;;;;33.40;57.50;;;;;;5079834;28;19939;-73
2022/07/25 15:47:55;;;;;;;;;;;32.20;57.50;;;;;;5072712;28;19924;-73
2022/07/25 15:50:21;;;;;;;;;;;31.50;59.70;;;;;;5074410;28;19992;-73
2022/07/25 15:52:47;;;;;;;;;;;31.10;60.80;;;;;;5066250;28;19978;-73
2022/07/25 15:55:13;;;;;;;;;;;30.80;63.50;;;;;;5074944;28;20271;-74
2022/07/25 15:57:39;;;;;;;;;;;30.80;62.10;;;;;;5075320;28;19915;-73
2022/07/25 16:00:05;;;;;;;;;;;30.50;63.70;;;;;;5077759;28;19908;-75
2022/07/25 16:02:30;;;;;;;;;;;30.70;64.90;;;;;;5066280;28;19923;-76
2022/07/25 16:07:09;;;;;;;;;;;30.80;63.60;;;;;;5102371;27;20384;-74